sensor_id;sensor_type;location;lat;lon;timestamp;temperature;humidity
67141;DHT22;54058;52.010;5.546;2023-03-20T00:00:38;10.60;84.10
67141;DHT22;54058;52.010;5.546;2023-03-20T00:03:05;10.60;84.30
67141;DHT22;54058;52.010;5.546;2023-03-20T00:05:31;10.50;84.40
67141;DHT22;54058;52.010;5.546;2023-03-20T00:07:57;10.50;84.50
67141;DHT22;54058;52.010;5.546;2023-03-20T00:10:43;10.60;84.60
67141;DHT22;54058;52.010;5.546;2023-03-20T00:13:13;10.60;84.50
67141;DHT22;54058;52.010;5.546;2023-03-20T00:15:43;10.50;84.30
67141;DHT22;54058;52.010;5.546;2023-03-20T00:18:17;10.60;84.40
67141;DHT22;54058;52.010;5.546;2023-03-20T00:20:48;10.60;84.40
67141;DHT22;54058;52.010;5.546;2023-03-20T00:23:14;10.70;84.20
67141;DHT22;54058;52.010;5.546;2023-03-20T00:25:41;10.70;84.30
67141;DHT22;54058;52.010;5.546;2023-03-20T00:30:39;10.60;85.10
67141;DHT22;54058;52.010;5.546;2023-03-20T00:33:05;10.50;84.60
67141;DHT22;54058;52.010;5.546;2023-03-20T00:35:33;10.40;84.50
67141;DHT22;54058;52.010;5.546;2023-03-20T00:37:59;10.50;84.60
67141;DHT22;54058;52.010;5.546;2023-03-20T00:40:28;10.60;84.40
67141;DHT22;54058;52.010;5.546;2023-03-20T00:42:58;10.60;84.30
67141;DHT22;54058;52.010;5.546;2023-03-20T00:45:25;10.70;84.20
67141;DHT22;54058;52.010;5.546;2023-03-20T00:47:51;10.70;84.10
67141;DHT22;54058;52.010;5.546;2023-03-20T00:50:22;10.70;83.90
67141;DHT22;54058;52.010;5.546;2023-03-20T00:52:50;10.70;83.90
67141;DHT22;54058;52.010;5.546;2023-03-20T00:55:16;10.70;84.00
67141;DHT22;54058;52.010;5.546;2023-03-20T00:57:43;10.70;85.10
67141;DHT22;54058;52.010;5.546;2023-03-20T01:02:42;10.70;84.00
67141;DHT22;54058;52.010;5.546;2023-03-20T01:05:07;10.60;84.60
67141;DHT22;54058;52.010;5.546;2023-03-20T01:07:33;10.60;84.10
67141;DHT22;54058;52.010;5.546;2023-03-20T01:09:58;10.60;84.80
67141;DHT22;54058;52.010;5.546;2023-03-20T01:12:24;10.60;84.30
67141;DHT22;54058;52.010;5.546;2023-03-20T01:14:54;10.50;84.40
67141;DHT22;54058;52.010;5.546;2023-03-20T01:17:22;10.50;84.40
67141;DHT22;54058;52.010;5.546;2023-03-20T01:19:48;10.40;84.40
67141;DHT22;54058;52.010;5.546;2023-03-20T01:22:14;10.40;84.50
67141;DHT22;54058;52.010;5.546;2023-03-20T01:24:42;10.30;84.60
67141;DHT22;54058;52.010;5.546;2023-03-20T01:27:13;10.30;85.30
67141;DHT22;54058;52.010;5.546;2023-03-20T01:29:40;10.40;84.60
67141;DHT22;54058;52.010;5.546;2023-03-20T01:32:15;10.40;84.50
67141;DHT22;54058;52.010;5.546;2023-03-20T01:34:41;10.40;84.30
67141;DHT22;54058;52.010;5.546;2023-03-20T01:37:17;10.40;84.30
67141;DHT22;54058;52.010;5.546;2023-03-20T01:39:46;10.40;84.20
67141;DHT22;54058;52.010;5.546;2023-03-20T01:42:15;10.40;84.20
67141;DHT22;54058;52.010;5.546;2023-03-20T01:44:41;10.50;84.00
67141;DHT22;54058;52.010;5.546;2023-03-20T01:47:19;10.50;83.90
67141;DHT22;54058;52.010;5.546;2023-03-20T01:53:20;10.50;83.80
67141;DHT22;54058;52.010;5.546;2023-03-20T01:55:50;10.50;83.70
67141;DHT22;54058;52.010;5.546;2023-03-20T01:58:26;10.50;83.60
67141;DHT22;54058;52.010;5.546;2023-03-20T02:00:53;10.50;83.40
67141;DHT22;54058;52.010;5.546;2023-03-20T02:03:20;10.50;83.30
67141;DHT22;54058;52.010;5.546;2023-03-20T02:05:46;10.40;83.20
67141;DHT22;54058;52.010;5.546;2023-03-20T02:08:23;10.40;83.40
67141;DHT22;54058;52.010;5.546;2023-03-20T02:10:50;10.40;83.30
67141;DHT22;54058;52.010;5.546;2023-03-20T02:13:17;10.40;83.00
67141;DHT22;54058;52.010;5.546;2023-03-20T02:16:05;10.40;83.20
67141;DHT22;54058;52.010;5.546;2023-03-20T02:18:35;10.40;83.30
67141;DHT22;54058;52.010;5.546;2023-03-20T02:26:12;10.40;83.00
67141;DHT22;54058;52.010;5.546;2023-03-20T02:28:52;10.40;83.00
67141;DHT22;54058;52.010;5.546;2023-03-20T02:40:05;10.30;82.90
67141;DHT22;54058;52.010;5.546;2023-03-20T02:42:53;10.20;83.20
67141;DHT22;54058;52.010;5.546;2023-03-20T02:46:01;10.20;83.30
67141;DHT22;54058;52.010;5.546;2023-03-20T02:48:45;10.30;83.20
67141;DHT22;54058;52.010;5.546;2023-03-20T02:54:06;10.40;83.00
67141;DHT22;54058;52.010;5.546;2023-03-20T02:56:53;10.30;83.00
67141;DHT22;54058;52.010;5.546;2023-03-20T02:59:46;10.30;83.10
67141;DHT22;54058;52.010;5.546;2023-03-20T03:02:20;10.40;83.10
67141;DHT22;54058;52.010;5.546;2023-03-20T03:04:56;10.40;82.90
67141;DHT22;54058;52.010;5.546;2023-03-20T03:07:25;10.40;82.80
67141;DHT22;54058;52.010;5.546;2023-03-20T03:10:02;10.40;82.90
67141;DHT22;54058;52.010;5.546;2023-03-20T03:12:34;10.40;83.30
67141;DHT22;54058;52.010;5.546;2023-03-20T03:15:09;10.40;83.20
67141;DHT22;54058;52.010;5.546;2023-03-20T03:17:42;10.40;82.60
67141;DHT22;54058;52.010;5.546;2023-03-20T03:20:20;10.40;82.60
67141;DHT22;54058;52.010;5.546;2023-03-20T03:22:47;10.40;82.60
67141;DHT22;54058;52.010;5.546;2023-03-20T03:25:13;10.30;82.50
67141;DHT22;54058;52.010;5.546;2023-03-20T03:27:41;10.30;82.50
67141;DHT22;54058;52.010;5.546;2023-03-20T03:32:49;10.20;82.40
67141;DHT22;54058;52.010;5.546;2023-03-20T03:35:18;10.20;82.60
67141;DHT22;54058;52.010;5.546;2023-03-20T03:41:31;10.20;82.60
67141;DHT22;54058;52.010;5.546;2023-03-20T03:44:12;10.10;82.60
67141;DHT22;54058;52.010;5.546;2023-03-20T03:46:54;10.00;82.60
67141;DHT22;54058;52.010;5.546;2023-03-20T03:49:26;9.90;82.50
67141;DHT22;54058;52.010;5.546;2023-03-20T03:51:56;9.90;82.70
67141;DHT22;54058;52.010;5.546;2023-03-20T03:54:33;9.90;82.90
67141;DHT22;54058;52.010;5.546;2023-03-20T03:57:02;9.90;82.80
67141;DHT22;54058;52.010;5.546;2023-03-20T03:59:51;9.90;82.80
67141;DHT22;54058;52.010;5.546;2023-03-20T04:02:19;9.80;82.80
67141;DHT22;54058;52.010;5.546;2023-03-20T04:04:49;9.80;82.70
67141;DHT22;54058;52.010;5.546;2023-03-20T04:07:15;9.80;82.70
67141;DHT22;54058;52.010;5.546;2023-03-20T04:09:41;9.80;82.70
67141;DHT22;54058;52.010;5.546;2023-03-20T04:12:31;9.80;82.60
67141;DHT22;54058;52.010;5.546;2023-03-20T04:14:57;9.80;82.70
67141;DHT22;54058;52.010;5.546;2023-03-20T04:17:23;9.70;82.50
67141;DHT22;54058;52.010;5.546;2023-03-20T04:19:48;9.70;82.70
67141;DHT22;54058;52.010;5.546;2023-03-20T04:22:14;9.70;82.70
67141;DHT22;54058;52.010;5.546;2023-03-20T04:24:40;9.70;82.70
67141;DHT22;54058;52.010;5.546;2023-03-20T04:27:05;9.70;82.60
67141;DHT22;54058;52.010;5.546;2023-03-20T04:29:31;9.70;82.60
67141;DHT22;54058;52.010;5.546;2023-03-20T04:31:56;9.70;82.60
67141;DHT22;54058;52.010;5.546;2023-03-20T04:34:22;9.70;82.50
67141;DHT22;54058;52.010;5.546;2023-03-20T04:36:49;9.70;82.60
67141;DHT22;54058;52.010;5.546;2023-03-20T04:39:14;9.70;82.60
67141;DHT22;54058;52.010;5.546;2023-03-20T04:41:41;9.60;82.70
67141;DHT22;54058;52.010;5.546;2023-03-20T04:44:07;9.60;82.70
67141;DHT22;54058;52.010;5.546;2023-03-20T04:46:32;9.70;82.80
67141;DHT22;54058;52.010;5.546;2023-03-20T04:48:58;9.70;82.80
67141;DHT22;54058;52.010;5.546;2023-03-20T04:51:24;9.60;82.70
67141;DHT22;54058;52.010;5.546;2023-03-20T04:53:49;9.60;82.90
67141;DHT22;54058;52.010;5.546;2023-03-20T04:56:15;9.60;82.90
67141;DHT22;54058;52.010;5.546;2023-03-20T04:58:41;9.60;82.90
67141;DHT22;54058;52.010;5.546;2023-03-20T05:01:06;9.70;83.00
67141;DHT22;54058;52.010;5.546;2023-03-20T05:03:32;9.70;82.90
67141;DHT22;54058;52.010;5.546;2023-03-20T05:05:58;9.70;82.90
67141;DHT22;54058;52.010;5.546;2023-03-20T05:08:24;9.70;82.90
67141;DHT22;54058;52.010;5.546;2023-03-20T05:10:50;9.70;82.90
67141;DHT22;54058;52.010;5.546;2023-03-20T05:13:16;9.70;83.00
67141;DHT22;54058;52.010;5.546;2023-03-20T05:15:42;9.70;83.00
67141;DHT22;54058;52.010;5.546;2023-03-20T05:18:08;9.70;82.90
67141;DHT22;54058;52.010;5.546;2023-03-20T05:20:34;9.70;82.90
67141;DHT22;54058;52.010;5.546;2023-03-20T05:23:01;9.70;82.90
67141;DHT22;54058;52.010;5.546;2023-03-20T05:25:27;9.70;82.90
67141;DHT22;54058;52.010;5.546;2023-03-20T05:27:52;9.70;82.80
67141;DHT22;54058;52.010;5.546;2023-03-20T05:30:18;9.60;83.00
67141;DHT22;54058;52.010;5.546;2023-03-20T05:32:44;9.60;83.20
67141;DHT22;54058;52.010;5.546;2023-03-20T05:35:11;9.60;83.10
67141;DHT22;54058;52.010;5.546;2023-03-20T05:37:37;9.70;83.10
67141;DHT22;54058;52.010;5.546;2023-03-20T05:40:03;9.70;83.10
67141;DHT22;54058;52.010;5.546;2023-03-20T05:42:29;9.70;83.00
67141;DHT22;54058;52.010;5.546;2023-03-20T05:44:55;9.70;83.10
67141;DHT22;54058;52.010;5.546;2023-03-20T05:47:21;9.70;83.10
67141;DHT22;54058;52.010;5.546;2023-03-20T05:49:46;9.70;83.10
67141;DHT22;54058;52.010;5.546;2023-03-20T05:52:12;9.70;83.00
67141;DHT22;54058;52.010;5.546;2023-03-20T05:54:38;9.70;83.00
67141;DHT22;54058;52.010;5.546;2023-03-20T05:57:03;9.70;83.00
67141;DHT22;54058;52.010;5.546;2023-03-20T05:59:29;9.70;83.10
67141;DHT22;54058;52.010;5.546;2023-03-20T06:01:55;9.70;83.00
67141;DHT22;54058;52.010;5.546;2023-03-20T06:04:20;9.70;83.00
67141;DHT22;54058;52.010;5.546;2023-03-20T06:06:46;9.70;83.00
67141;DHT22;54058;52.010;5.546;2023-03-20T06:09:11;9.70;83.10
67141;DHT22;54058;52.010;5.546;2023-03-20T06:11:37;9.70;83.00
67141;DHT22;54058;52.010;5.546;2023-03-20T06:14:03;9.70;83.00
67141;DHT22;54058;52.010;5.546;2023-03-20T06:16:28;9.70;83.00
67141;DHT22;54058;52.010;5.546;2023-03-20T06:18:54;9.80;83.00
67141;DHT22;54058;52.010;5.546;2023-03-20T06:21:19;9.80;83.10
67141;DHT22;54058;52.010;5.546;2023-03-20T06:23:45;9.80;83.00
67141;DHT22;54058;52.010;5.546;2023-03-20T06:26:11;9.80;82.90
67141;DHT22;54058;52.010;5.546;2023-03-20T06:28:36;9.90;82.80
67141;DHT22;54058;52.010;5.546;2023-03-20T06:31:02;9.90;82.80
67141;DHT22;54058;52.010;5.546;2023-03-20T06:33:28;9.80;82.70
67141;DHT22;54058;52.010;5.546;2023-03-20T06:35:53;9.80;82.90
67141;DHT22;54058;52.010;5.546;2023-03-20T06:38:19;9.90;83.00
67141;DHT22;54058;52.010;5.546;2023-03-20T06:40:45;9.90;82.80
67141;DHT22;54058;52.010;5.546;2023-03-20T06:43:10;9.80;82.90
67141;DHT22;54058;52.010;5.546;2023-03-20T06:45:37;9.80;82.80
67141;DHT22;54058;52.010;5.546;2023-03-20T06:48:08;9.80;82.80
67141;DHT22;54058;52.010;5.546;2023-03-20T06:50:35;9.80;83.10
67141;DHT22;54058;52.010;5.546;2023-03-20T06:53:01;9.70;83.10
67141;DHT22;54058;52.010;5.546;2023-03-20T06:55:28;9.80;83.20
67141;DHT22;54058;52.010;5.546;2023-03-20T06:57:53;9.80;83.20
67141;DHT22;54058;52.010;5.546;2023-03-20T07:00:19;9.80;83.20
67141;DHT22;54058;52.010;5.546;2023-03-20T07:02:46;9.80;83.70
67141;DHT22;54058;52.010;5.546;2023-03-20T07:05:13;9.80;82.90
67141;DHT22;54058;52.010;5.546;2023-03-20T07:07:39;9.80;83.10
67141;DHT22;54058;52.010;5.546;2023-03-20T07:10:05;9.80;83.10
67141;DHT22;54058;52.010;5.546;2023-03-20T07:12:31;9.80;83.10
67141;DHT22;54058;52.010;5.546;2023-03-20T07:14:57;9.90;83.20
67141;DHT22;54058;52.010;5.546;2023-03-20T07:17:22;9.90;83.10
67141;DHT22;54058;52.010;5.546;2023-03-20T07:19:48;9.90;83.00
67141;DHT22;54058;52.010;5.546;2023-03-20T07:22:23;9.90;83.00
67141;DHT22;54058;52.010;5.546;2023-03-20T07:24:49;9.90;83.10
67141;DHT22;54058;52.010;5.546;2023-03-20T07:27:15;9.90;83.00
67141;DHT22;54058;52.010;5.546;2023-03-20T07:29:42;9.80;83.10
67141;DHT22;54058;52.010;5.546;2023-03-20T07:32:08;9.90;83.10
67141;DHT22;54058;52.010;5.546;2023-03-20T07:34:33;9.90;83.10
67141;DHT22;54058;52.010;5.546;2023-03-20T07:36:59;10.00;83.10
67141;DHT22;54058;52.010;5.546;2023-03-20T07:39:25;10.00;83.00
67141;DHT22;54058;52.010;5.546;2023-03-20T07:41:50;9.90;82.90
67141;DHT22;54058;52.010;5.546;2023-03-20T07:44:16;10.00;83.00
67141;DHT22;54058;52.010;5.546;2023-03-20T07:46:43;10.00;82.90
67141;DHT22;54058;52.010;5.546;2023-03-20T07:49:20;9.90;82.50
67141;DHT22;54058;52.010;5.546;2023-03-20T07:51:47;9.80;82.80
67141;DHT22;54058;52.010;5.546;2023-03-20T07:54:13;9.70;83.10
67141;DHT22;54058;52.010;5.546;2023-03-20T07:56:39;9.80;83.40
67141;DHT22;54058;52.010;5.546;2023-03-20T07:59:05;9.80;83.30
67141;DHT22;54058;52.010;5.546;2023-03-20T08:01:31;9.90;83.20
67141;DHT22;54058;52.010;5.546;2023-03-20T08:03:56;9.90;83.20
67141;DHT22;54058;52.010;5.546;2023-03-20T08:06:22;10.00;83.20
67141;DHT22;54058;52.010;5.546;2023-03-20T08:08:48;10.00;83.10
67141;DHT22;54058;52.010;5.546;2023-03-20T08:11:16;10.10;83.70
67141;DHT22;54058;52.010;5.546;2023-03-20T08:13:42;10.10;83.00
67141;DHT22;54058;52.010;5.546;2023-03-20T08:16:08;10.20;82.90
67141;DHT22;54058;52.010;5.546;2023-03-20T08:18:34;10.10;82.70
67141;DHT22;54058;52.010;5.546;2023-03-20T08:21:00;10.20;83.00
67141;DHT22;54058;52.010;5.546;2023-03-20T08:23:26;10.20;82.80
67141;DHT22;54058;52.010;5.546;2023-03-20T08:25:52;10.30;82.90
67141;DHT22;54058;52.010;5.546;2023-03-20T08:28:19;10.40;83.00
67141;DHT22;54058;52.010;5.546;2023-03-20T08:30:45;10.50;82.70
67141;DHT22;54058;52.010;5.546;2023-03-20T08:33:12;10.50;82.90
67141;DHT22;54058;52.010;5.546;2023-03-20T08:35:38;10.60;82.70
67141;DHT22;54058;52.010;5.546;2023-03-20T08:38:03;10.70;82.70
67141;DHT22;54058;52.010;5.546;2023-03-20T08:40:29;10.70;82.50
67141;DHT22;54058;52.010;5.546;2023-03-20T08:42:55;10.80;82.50
67141;DHT22;54058;52.010;5.546;2023-03-20T08:45:20;10.90;82.60
67141;DHT22;54058;52.010;5.546;2023-03-20T08:47:48;10.90;82.30
67141;DHT22;54058;52.010;5.546;2023-03-20T08:50:14;11.00;82.40
67141;DHT22;54058;52.010;5.546;2023-03-20T08:52:40;11.00;82.20
67141;DHT22;54058;52.010;5.546;2023-03-20T08:55:09;11.00;82.10
67141;DHT22;54058;52.010;5.546;2023-03-20T08:57:35;11.00;82.10
67141;DHT22;54058;52.010;5.546;2023-03-20T09:00:03;10.90;80.10
67141;DHT22;54058;52.010;5.546;2023-03-20T09:02:30;10.90;81.90
67141;DHT22;54058;52.010;5.546;2023-03-20T09:04:56;11.00;82.20
67141;DHT22;54058;52.010;5.546;2023-03-20T09:07:21;10.90;82.00
67141;DHT22;54058;52.010;5.546;2023-03-20T09:09:47;11.00;82.20
67141;DHT22;54058;52.010;5.546;2023-03-20T09:12:13;11.00;82.10
67141;DHT22;54058;52.010;5.546;2023-03-20T09:14:38;11.00;82.10
67141;DHT22;54058;52.010;5.546;2023-03-20T09:17:04;11.00;82.00
67141;DHT22;54058;52.010;5.546;2023-03-20T09:19:30;11.00;82.10
67141;DHT22;54058;52.010;5.546;2023-03-20T09:21:56;11.00;82.10
67141;DHT22;54058;52.010;5.546;2023-03-20T09:24:21;11.00;82.50
67141;DHT22;54058;52.010;5.546;2023-03-20T09:26:48;10.90;82.30
67141;DHT22;54058;52.010;5.546;2023-03-20T09:29:14;10.80;82.60
67141;DHT22;54058;52.010;5.546;2023-03-20T09:31:39;10.80;83.00
67141;DHT22;54058;52.010;5.546;2023-03-20T09:34:05;10.80;83.10
67141;DHT22;54058;52.010;5.546;2023-03-20T09:36:32;10.70;83.00
67141;DHT22;54058;52.010;5.546;2023-03-20T09:38:57;10.80;83.20
67141;DHT22;54058;52.010;5.546;2023-03-20T09:41:24;10.90;83.30
67141;DHT22;54058;52.010;5.546;2023-03-20T09:49:38;11.10;83.20
67141;DHT22;54058;52.010;5.546;2023-03-20T09:55:01;11.30;82.90
67141;DHT22;54058;52.010;5.546;2023-03-20T09:57:40;11.40;83.20
67141;DHT22;54058;52.010;5.546;2023-03-20T10:00:27;11.60;83.20
67141;DHT22;54058;52.010;5.546;2023-03-20T10:03:05;11.60;82.60
67141;DHT22;54058;52.010;5.546;2023-03-20T10:05:36;11.60;82.80
67141;DHT22;54058;52.010;5.546;2023-03-20T10:08:05;11.70;82.90
67141;DHT22;54058;52.010;5.546;2023-03-20T10:10:59;11.70;82.60
67141;DHT22;54058;52.010;5.546;2023-03-20T10:21:51;11.90;83.10
67141;DHT22;54058;52.010;5.546;2023-03-20T10:26:53;12.20;82.70
67141;DHT22;54058;52.010;5.546;2023-03-20T10:32:35;12.40;82.40
67141;DHT22;54058;52.010;5.546;2023-03-20T10:35:25;12.30;81.80
67141;DHT22;54058;52.010;5.546;2023-03-20T10:40:31;12.20;82.60
67141;DHT22;54058;52.010;5.546;2023-03-20T10:43:03;12.20;82.50
67141;DHT22;54058;52.010;5.546;2023-03-20T10:48:03;12.10;83.20
67141;DHT22;54058;52.010;5.546;2023-03-20T10:50:36;12.10;83.00
67141;DHT22;54058;52.010;5.546;2023-03-20T10:53:05;12.10;83.00
67141;DHT22;54058;52.010;5.546;2023-03-20T10:55:38;12.20;83.20
67141;DHT22;54058;52.010;5.546;2023-03-20T10:58:23;12.20;83.00
67141;DHT22;54058;52.010;5.546;2023-03-20T11:00:54;12.10;82.70
67141;DHT22;54058;52.010;5.546;2023-03-20T11:03:28;12.10;83.30
67141;DHT22;54058;52.010;5.546;2023-03-20T11:06:04;12.00;83.20
67141;DHT22;54058;52.010;5.546;2023-03-20T11:08:37;12.00;83.20
67141;DHT22;54058;52.010;5.546;2023-03-20T11:11:04;12.00;83.40
67141;DHT22;54058;52.010;5.546;2023-03-20T11:13:41;12.00;83.50
67141;DHT22;54058;52.010;5.546;2023-03-20T11:16:29;12.00;83.20
67141;DHT22;54058;52.010;5.546;2023-03-20T11:19:04;12.00;83.10
67141;DHT22;54058;52.010;5.546;2023-03-20T11:21:31;12.10;83.10
67141;DHT22;54058;52.010;5.546;2023-03-20T11:24:00;12.10;83.10
67141;DHT22;54058;52.010;5.546;2023-03-20T11:26:37;12.20;83.00
67141;DHT22;54058;52.010;5.546;2023-03-20T11:29:14;12.20;82.60
67141;DHT22;54058;52.010;5.546;2023-03-20T11:31:44;12.20;82.70
67141;DHT22;54058;52.010;5.546;2023-03-20T11:36:44;12.10;83.10
67141;DHT22;54058;52.010;5.546;2023-03-20T11:39:15;12.10;83.30
67141;DHT22;54058;52.010;5.546;2023-03-20T11:41:46;12.10;83.20
67141;DHT22;54058;52.010;5.546;2023-03-20T11:49:23;12.10;82.90
67141;DHT22;54058;52.010;5.546;2023-03-20T11:51:51;12.10;83.10
67141;DHT22;54058;52.010;5.546;2023-03-20T11:54:20;12.20;83.10
67141;DHT22;54058;52.010;5.546;2023-03-20T11:56:58;12.20;83.00
67141;DHT22;54058;52.010;5.546;2023-03-20T11:59:35;12.10;82.90
67141;DHT22;54058;52.010;5.546;2023-03-20T12:02:03;12.20;82.90
67141;DHT22;54058;52.010;5.546;2023-03-20T12:04:36;12.20;82.90
67141;DHT22;54058;52.010;5.546;2023-03-20T12:07:33;12.10;82.70
67141;DHT22;54058;52.010;5.546;2023-03-20T12:10:10;12.10;82.50
67141;DHT22;54058;52.010;5.546;2023-03-20T12:12:47;12.00;82.60
67141;DHT22;54058;52.010;5.546;2023-03-20T12:15:25;12.00;82.80
67141;DHT22;54058;52.010;5.546;2023-03-20T12:18:24;11.90;83.00
67141;DHT22;54058;52.010;5.546;2023-03-20T12:26:55;12.30;82.90
67141;DHT22;54058;52.010;5.546;2023-03-20T12:29:31;12.50;82.60
67141;DHT22;54058;52.010;5.546;2023-03-20T12:32:05;12.70;82.30
67141;DHT22;54058;52.010;5.546;2023-03-20T12:34:51;12.80;82.00
67141;DHT22;54058;52.010;5.546;2023-03-20T12:37:21;12.80;81.70
67141;DHT22;54058;52.010;5.546;2023-03-20T12:39:53;12.80;82.00
67141;DHT22;54058;52.010;5.546;2023-03-20T12:42:31;12.70;82.00
67141;DHT22;54058;52.010;5.546;2023-03-20T12:45:13;12.60;82.30
67141;DHT22;54058;52.010;5.546;2023-03-20T12:50:38;12.50;82.40
67141;DHT22;54058;52.010;5.546;2023-03-20T12:53:14;12.30;82.70
67141;DHT22;54058;52.010;5.546;2023-03-20T12:56:43;12.30;83.10
67141;DHT22;54058;52.010;5.546;2023-03-20T13:01:44;12.20;83.20
67141;DHT22;54058;52.010;5.546;2023-03-20T13:06:58;12.10;83.20
67141;DHT22;54058;52.010;5.546;2023-03-20T13:09:29;12.10;83.60
67141;DHT22;54058;52.010;5.546;2023-03-20T13:15:19;12.10;83.60
67141;DHT22;54058;52.010;5.546;2023-03-20T13:20:55;12.10;83.50
67141;DHT22;54058;52.010;5.546;2023-03-20T13:23:30;12.10;83.60
67141;DHT22;54058;52.010;5.546;2023-03-20T13:26:12;12.00;83.50
67141;DHT22;54058;52.010;5.546;2023-03-20T13:29:00;12.10;83.40
67141;DHT22;54058;52.010;5.546;2023-03-20T13:39:34;12.00;83.30
67141;DHT22;54058;52.010;5.546;2023-03-20T13:42:05;12.00;83.30
67141;DHT22;54058;52.010;5.546;2023-03-20T13:44:34;12.00;83.10
67141;DHT22;54058;52.010;5.546;2023-03-20T13:47:11;12.00;83.10
67141;DHT22;54058;52.010;5.546;2023-03-20T13:49:55;11.90;83.10
67141;DHT22;54058;52.010;5.546;2023-03-20T13:52:27;11.90;83.20
67141;DHT22;54058;52.010;5.546;2023-03-20T14:05:44;11.70;83.80
67141;DHT22;54058;52.010;5.546;2023-03-20T14:11:04;11.80;83.70
67141;DHT22;54058;52.010;5.546;2023-03-20T14:13:32;11.80;83.70
67141;DHT22;54058;52.010;5.546;2023-03-20T14:16:01;11.90;83.50
67141;DHT22;54058;52.010;5.546;2023-03-20T14:18:29;11.80;83.50
67141;DHT22;54058;52.010;5.546;2023-03-20T14:20:58;11.90;83.60
67141;DHT22;54058;52.010;5.546;2023-03-20T14:24:03;11.90;83.50
67141;DHT22;54058;52.010;5.546;2023-03-20T14:26:34;11.80;83.70
67141;DHT22;54058;52.010;5.546;2023-03-20T14:31:34;11.70;83.50
67141;DHT22;54058;52.010;5.546;2023-03-20T14:37:02;11.60;83.80
67141;DHT22;54058;52.010;5.546;2023-03-20T14:39:47;11.50;84.00
67141;DHT22;54058;52.010;5.546;2023-03-20T14:45:26;11.50;83.90
67141;DHT22;54058;52.010;5.546;2023-03-20T14:53:39;11.60;84.20
67141;DHT22;54058;52.010;5.546;2023-03-20T14:56:12;11.60;83.80
67141;DHT22;54058;52.010;5.546;2023-03-20T14:59:11;11.70;83.80
67141;DHT22;54058;52.010;5.546;2023-03-20T15:04:21;11.70;83.70
67141;DHT22;54058;52.010;5.546;2023-03-20T15:06:52;11.70;83.90
67141;DHT22;54058;52.010;5.546;2023-03-20T15:09:19;11.70;83.80
67141;DHT22;54058;52.010;5.546;2023-03-20T15:11:46;11.60;83.70
67141;DHT22;54058;52.010;5.546;2023-03-20T15:14:17;11.60;84.80
67141;DHT22;54058;52.010;5.546;2023-03-20T15:16:46;11.60;83.90
67141;DHT22;54058;52.010;5.546;2023-03-20T15:19:17;11.50;83.80
67141;DHT22;54058;52.010;5.546;2023-03-20T15:21:45;11.50;83.90
67141;DHT22;54058;52.010;5.546;2023-03-20T15:24:23;11.40;83.80
67141;DHT22;54058;52.010;5.546;2023-03-20T15:26:54;11.40;83.90
67141;DHT22;54058;52.010;5.546;2023-03-20T15:29:22;11.40;84.10
67141;DHT22;54058;52.010;5.546;2023-03-20T15:31:53;11.40;84.10
67141;DHT22;54058;52.010;5.546;2023-03-20T15:34:29;11.30;84.30
67141;DHT22;54058;52.010;5.546;2023-03-20T15:36:57;11.30;84.40
67141;DHT22;54058;52.010;5.546;2023-03-20T15:39:25;11.20;85.70
67141;DHT22;54058;52.010;5.546;2023-03-20T15:41:56;11.20;84.30
67141;DHT22;54058;52.010;5.546;2023-03-20T15:44:36;11.20;84.10
67141;DHT22;54058;52.010;5.546;2023-03-20T15:49:36;11.10;84.30
67141;DHT22;54058;52.010;5.546;2023-03-20T15:52:05;11.10;84.60
67141;DHT22;54058;52.010;5.546;2023-03-20T15:54:33;11.00;84.50
67141;DHT22;54058;52.010;5.546;2023-03-20T15:57:01;11.00;84.50
67141;DHT22;54058;52.010;5.546;2023-03-20T15:59:28;11.10;84.50
67141;DHT22;54058;52.010;5.546;2023-03-20T16:01:57;11.00;84.60
67141;DHT22;54058;52.010;5.546;2023-03-20T16:04:23;11.00;84.60
67141;DHT22;54058;52.010;5.546;2023-03-20T16:06:58;11.00;84.50
67141;DHT22;54058;52.010;5.546;2023-03-20T16:09:25;11.00;84.70
67141;DHT22;54058;52.010;5.546;2023-03-20T16:14:23;11.10;84.90
67141;DHT22;54058;52.010;5.546;2023-03-20T16:16:51;11.10;84.70
67141;DHT22;54058;52.010;5.546;2023-03-20T16:19:18;11.10;84.50
67141;DHT22;54058;52.010;5.546;2023-03-20T16:21:53;11.20;84.60
67141;DHT22;54058;52.010;5.546;2023-03-20T16:24:33;11.20;84.60
67141;DHT22;54058;52.010;5.546;2023-03-20T16:27:00;11.20;84.40
67141;DHT22;54058;52.010;5.546;2023-03-20T16:29:30;11.20;84.40
67141;DHT22;54058;52.010;5.546;2023-03-20T16:32:08;11.20;84.40
67141;DHT22;54058;52.010;5.546;2023-03-20T16:34:40;11.20;84.70
67141;DHT22;54058;52.010;5.546;2023-03-20T16:37:20;11.20;84.60
67141;DHT22;54058;52.010;5.546;2023-03-20T16:39:46;11.20;84.60
67141;DHT22;54058;52.010;5.546;2023-03-20T16:42:22;11.20;84.60
67141;DHT22;54058;52.010;5.546;2023-03-20T16:44:53;11.30;84.70
67141;DHT22;54058;52.010;5.546;2023-03-20T16:47:31;11.20;84.60
67141;DHT22;54058;52.010;5.546;2023-03-20T16:52:38;11.20;85.50
67141;DHT22;54058;52.010;5.546;2023-03-20T16:55:05;11.20;84.80
67141;DHT22;54058;52.010;5.546;2023-03-20T16:57:36;11.10;84.80
67141;DHT22;54058;52.010;5.546;2023-03-20T17:00:28;11.10;84.90
67141;DHT22;54058;52.010;5.546;2023-03-20T17:06:06;11.10;85.20
67141;DHT22;54058;52.010;5.546;2023-03-20T17:08:40;11.10;85.10
67141;DHT22;54058;52.010;5.546;2023-03-20T17:11:14;11.10;85.10
67141;DHT22;54058;52.010;5.546;2023-03-20T17:13:41;11.10;85.10
67141;DHT22;54058;52.010;5.546;2023-03-20T17:16:13;11.10;85.10
67141;DHT22;54058;52.010;5.546;2023-03-20T17:18:40;11.10;85.10
67141;DHT22;54058;52.010;5.546;2023-03-20T17:21:08;11.10;85.20
67141;DHT22;54058;52.010;5.546;2023-03-20T17:23:33;11.10;85.30
67141;DHT22;54058;52.010;5.546;2023-03-20T17:25:59;11.10;85.30
67141;DHT22;54058;52.010;5.546;2023-03-20T17:28:33;11.10;85.30
67141;DHT22;54058;52.010;5.546;2023-03-20T17:30:59;11.10;85.20
67141;DHT22;54058;52.010;5.546;2023-03-20T17:33:30;11.10;85.30
67141;DHT22;54058;52.010;5.546;2023-03-20T17:35:57;11.00;85.30
67141;DHT22;54058;52.010;5.546;2023-03-20T17:38:23;11.00;86.00
67141;DHT22;54058;52.010;5.546;2023-03-20T17:40:50;11.00;87.10
67141;DHT22;54058;52.010;5.546;2023-03-20T17:43:17;11.00;85.70
67141;DHT22;54058;52.010;5.546;2023-03-20T17:45:43;11.00;85.60
67141;DHT22;54058;52.010;5.546;2023-03-20T17:48:15;10.90;87.20
67141;DHT22;54058;52.010;5.546;2023-03-20T17:50:43;10.90;85.70
67141;DHT22;54058;52.010;5.546;2023-03-20T17:53:15;10.90;85.70
67141;DHT22;54058;52.010;5.546;2023-03-20T17:55:41;10.90;85.60
67141;DHT22;54058;52.010;5.546;2023-03-20T17:58:16;10.90;85.60
67141;DHT22;54058;52.010;5.546;2023-03-20T18:00:42;10.90;85.60
67141;DHT22;54058;52.010;5.546;2023-03-20T18:03:08;10.90;85.60
67141;DHT22;54058;52.010;5.546;2023-03-20T18:05:33;11.00;85.60
67141;DHT22;54058;52.010;5.546;2023-03-20T18:08:04;11.00;85.50
67141;DHT22;54058;52.010;5.546;2023-03-20T18:10:30;11.00;85.50